Time;durP1;ratioP1;P1;durP2;ratioP2;P2;SDS_P1;SDS_P2;PMS_P1;PMS_P2;Temp;Humidity;BMP_temperature;BMP_pressure;BME280_temperature;BME280_humidity;BME280_pressure;Samples;Min_cycle;Max_cycle;Signal;HPM_P1;HPM_P2
2020/12/20 00:02:20;;;;;;;14.00;8.35;;;8.70;99.90;;;;;;5034217;28;20052;-62
2020/12/20 00:04:46;;;;;;;13.80;8.40;;;8.80;99.90;;;;;;5048995;28;20113;-62
2020/12/20 00:07:12;;;;;;;11.55;7.15;;;8.90;99.90;;;;;;5048688;28;20056;-62
2020/12/20 00:09:57;;;;;;;16.23;8.23;;;8.80;99.90;;;;;;5034199;28;20110;-62
2020/12/20 00:12:24;;;;;;;13.13;7.20;;;8.80;99.90;;;;;;5048771;28;20140;-62
2020/12/20 00:14:50;;;;;;;11.80;7.60;;;8.80;99.90;;;;;;5048899;28;20061;-63
2020/12/20 00:17:17;;;;;;;15.13;9.50;;;8.70;99.90;;;;;;5048912;28;20149;-63
2020/12/20 00:19:43;;;;;;;21.70;8.35;;;8.70;99.90;;;;;;5048760;28;20053;-62
2020/12/20 00:22:28;;;;;;;15.55;7.15;;;8.60;99.90;;;;;;5034009;28;20113;-62
2020/12/20 00:24:54;;;;;;;11.35;7.35;;;8.60;99.90;;;;;;5048775;28;20080;-63
2020/12/20 00:27:40;;;;;;;11.93;7.50;;;8.60;99.90;;;;;;5033845;28;20049;-63
2020/12/20 00:30:08;;;;;;;16.73;8.05;;;8.50;99.90;;;;;;5048666;28;20049;-63
2020/12/20 00:32:35;;;;;;;17.60;8.23;;;8.50;99.90;;;;;;5048454;28;20052;-63
2020/12/20 00:35:01;;;;;;;16.60;6.45;;;8.60;99.90;;;;;;5048592;28;20084;-63
2020/12/20 00:37:46;;;;;;;14.20;6.38;;;8.60;99.90;;;;;;5033534;28;20079;-63
2020/12/20 00:40:12;;;;;;;11.65;6.47;;;8.60;99.90;;;;;;5048355;28;20105;-63
2020/12/20 00:42:38;;;;;;;16.40;6.90;;;8.60;99.90;;;;;;5048271;28;20497;-63
2020/12/20 00:45:06;;;;;;;11.48;7.03;;;8.60;99.90;;;;;;5048203;28;20069;-63
2020/12/20 00:47:31;;;;;;;14.52;8.02;;;8.60;99.90;;;;;;5048588;28;20045;-63
2020/12/20 00:49:57;;;;;;;14.57;7.85;;;8.60;99.90;;;;;;5048311;28;20041;-63
2020/12/20 00:52:43;;;;;;;11.02;6.53;;;8.70;99.90;;;;;;5033553;28;20041;-63
2020/12/20 00:55:09;;;;;;;12.38;7.00;;;8.70;99.90;;;;;;5046884;28;20473;-63
2020/12/20 00:57:54;;;;;;;11.23;5.65;;;8.70;99.90;;;;;;5033144;28;20136;-63
2020/12/20 01:00:20;;;;;;;9.27;6.45;;;8.80;99.90;;;;;;5048104;28;20053;-63
2020/12/20 01:02:46;;;;;;;12.25;6.72;;;8.90;99.90;;;;;;5048029;28;20112;-63
2020/12/20 01:05:12;;;;;;;20.88;7.50;;;8.80;99.90;;;;;;5048095;28;20061;-63
2020/12/20 01:07:37;;;;;;;11.05;5.97;;;8.70;99.90;;;;;;5047951;28;20046;-63
2020/12/20 01:10:03;;;;;;;15.48;7.35;;;8.80;99.90;;;;;;5047935;28;20053;-63
2020/12/20 01:12:49;;;;;;;10.52;6.90;;;8.80;99.90;;;;;;5032999;28;20049;-63
2020/12/20 01:15:15;;;;;;;12.98;6.80;;;8.60;99.90;;;;;;5047791;28;20073;-63
2020/12/20 01:17:40;;;;;;;16.55;6.93;;;8.60;99.90;;;;;;5047739;28;20045;-63
2020/12/20 01:20:06;;;;;;;13.43;6.25;;;8.60;99.90;;;;;;5047586;28;20052;-63
2020/12/20 01:22:32;;;;;;;12.23;6.88;;;8.50;99.90;;;;;;5047553;28;20045;-62
2020/12/20 01:25:18;;;;;;;14.38;7.20;;;8.50;99.90;;;;;;5033222;28;20072;-62
2020/12/20 01:28:04;;;;;;;14.18;6.47;;;8.50;99.90;;;;;;5032828;28;20065;-62
2020/12/20 01:30:52;;;;;;;12.27;6.75;;;8.50;99.90;;;;;;5032956;28;20049;-62
2020/12/20 01:33:17;;;;;;;11.82;6.47;;;8.60;99.90;;;;;;5047234;28;20113;-63
2020/12/20 01:35:43;;;;;;;10.43;6.47;;;8.50;99.90;;;;;;5047240;28;20049;-62
2020/12/20 01:38:09;;;;;;;14.98;6.60;;;8.50;99.90;;;;;;5047242;28;20053;-62
2020/12/20 01:40:35;;;;;;;15.02;6.40;;;8.40;99.90;;;;;;5047446;28;20099;-62
2020/12/20 01:43:00;;;;;;;16.92;7.55;;;8.40;99.90;;;;;;5047360;28;20554;-62
2020/12/20 01:45:26;;;;;;;14.48;7.63;;;8.30;99.90;;;;;;5047191;28;20088;-62
2020/12/20 01:47:53;;;;;;;17.88;8.15;;;8.40;99.90;;;;;;5046927;28;20088;-62
2020/12/20 01:50:19;;;;;;;17.17;7.22;;;8.30;99.90;;;;;;5047083;28;20050;-62
2020/12/20 01:52:45;;;;;;;18.15;8.32;;;8.30;99.90;;;;;;5046880;28;20045;-62
2020/12/20 01:55:12;;;;;;;11.13;7.50;;;8.20;99.90;;;;;;5046995;28;20049;-62
2020/12/20 01:57:59;;;;;;;12.05;7.13;;;8.20;99.90;;;;;;5032124;28;20053;-62
2020/12/20 02:00:44;;;;;;;11.20;6.63;;;8.30;99.90;;;;;;5032277;28;20053;-62
2020/12/20 02:03:10;;;;;;;12.82;7.13;;;8.30;99.90;;;;;;5047019;28;20053;-62
2020/12/20 02:05:56;;;;;;;16.15;7.28;;;8.20;99.90;;;;;;5031518;28;20057;-62
2020/12/20 02:08:22;;;;;;;14.90;8.07;;;8.30;99.90;;;;;;5046800;28;20053;-62
2020/12/20 02:11:12;;;;;;;16.25;6.68;;;8.40;99.90;;;;;;5046736;28;20041;-62
2020/12/20 02:13:45;;;;;;;14.25;7.07;;;8.40;99.90;;;;;;5046587;28;20543;-62
2020/12/20 02:16:16;;;;;;;14.18;7.70;;;8.40;99.90;;;;;;5046557;28;20045;-62
2020/12/20 02:19:02;;;;;;;14.10;6.88;;;8.40;99.90;;;;;;5031910;28;20072;-63
2020/12/20 02:21:28;;;;;;;16.63;7.72;;;8.40;99.90;;;;;;5046336;28;20037;-62
2020/12/20 02:23:54;;;;;;;15.18;7.45;;;8.20;99.90;;;;;;5046503;28;20060;-62
2020/12/20 02:26:23;;;;;;;14.50;6.93;;;8.20;99.90;;;;;;5046434;28;20051;-62
2020/12/20 02:28:54;;;;;;;14.30;6.72;;;8.20;99.90;;;;;;5046080;28;20065;-62
2020/12/20 02:31:21;;;;;;;14.13;6.70;;;8.20;99.90;;;;;;5046274;28;20061;-62
2020/12/20 02:33:47;;;;;;;11.60;7.47;;;8.20;99.90;;;;;;5046239;28;20041;-63
2020/12/20 02:36:33;;;;;;;18.50;6.90;;;8.30;99.90;;;;;;5031643;28;20056;-62
2020/12/20 02:38:59;;;;;;;14.90;7.95;;;8.30;99.90;;;;;;5046456;28;20041;-62
2020/12/20 02:41:25;;;;;;;11.13;6.57;;;8.30;99.90;;;;;;5046161;28;20045;-62
2020/12/20 02:43:51;;;;;;;16.92;8.20;;;8.30;99.90;;;;;;5046203;28;20045;-62
2020/12/20 02:46:17;;;;;;;13.68;7.15;;;8.20;99.90;;;;;;5046057;28;20046;-62
2020/12/20 02:48:43;;;;;;;9.80;6.45;;;8.30;99.90;;;;;;5045977;28;20104;-62
2020/12/20 02:51:11;;;;;;;13.18;7.05;;;8.30;99.90;;;;;;5046162;28;20060;-62
2020/12/20 02:53:37;;;;;;;10.07;6.40;;;8.30;99.90;;;;;;5046073;28;20417;-62
2020/12/20 02:56:03;;;;;;;13.55;6.85;;;8.30;99.90;;;;;;5045871;28;20048;-62
2020/12/20 02:58:51;;;;;;;17.38;7.03;;;8.40;99.90;;;;;;5031184;28;20056;-62
2020/12/20 03:01:17;;;;;;;16.50;6.75;;;8.40;99.90;;;;;;5045865;28;20049;-62
2020/12/20 03:03:43;;;;;;;13.75;7.90;;;8.40;99.90;;;;;;5045868;28;20091;-62
2020/12/20 03:06:09;;;;;;;16.20;6.65;;;8.30;99.90;;;;;;5045889;28;20045;-62
2020/12/20 03:08:35;;;;;;;19.27;7.07;;;8.30;99.90;;;;;;5045870;28;20071;-62
2020/12/20 03:11:01;;;;;;;14.75;7.55;;;8.30;99.90;;;;;;5045886;28;20057;-62
2020/12/20 03:13:27;;;;;;;12.27;6.78;;;8.30;99.90;;;;;;5045703;28;20421;-62
2020/12/20 03:15:52;;;;;;;15.20;7.22;;;8.40;99.90;;;;;;5045670;28;20135;-62
2020/12/20 03:18:18;;;;;;;14.30;7.13;;;8.30;99.90;;;;;;5046856;28;20053;-62
2020/12/20 03:20:44;;;;;;;13.25;7.30;;;8.30;99.90;;;;;;5049858;28;20105;-63
2020/12/20 03:23:10;;;;;;;14.05;7.13;;;8.30;99.90;;;;;;5050026;28;20046;-62
2020/12/20 03:25:55;;;;;;;14.43;6.50;;;8.30;99.90;;;;;;5035229;28;20562;-62
2020/12/20 03:28:21;;;;;;;14.38;6.82;;;8.30;99.90;;;;;;5049438;28;20112;-62
2020/12/20 03:31:07;;;;;;;22.40;7.50;;;8.30;99.90;;;;;;5034983;28;20088;-62
2020/12/20 03:33:33;;;;;;;13.15;7.32;;;8.30;99.90;;;;;;5049653;28;20483;-62
2020/12/20 03:35:59;;;;;;;13.30;7.60;;;8.20;99.90;;;;;;5049516;28;20105;-62
2020/12/20 03:38:24;;;;;;;20.77;8.38;;;8.20;99.90;;;;;;5049454;28;20057;-62
2020/12/20 03:40:50;;;;;;;18.60;7.05;;;8.30;99.90;;;;;;5049688;28;20465;-62
2020/12/20 03:43:17;;;;;;;11.25;7.53;;;8.40;99.90;;;;;;5049372;28;20047;-62
2020/12/20 03:45:42;;;;;;;11.90;7.22;;;8.30;99.90;;;;;;5049435;28;20124;-62
2020/12/20 03:48:28;;;;;;;13.00;7.38;;;8.30;99.90;;;;;;5034664;28;20421;-62
2020/12/20 03:50:54;;;;;;;14.52;7.55;;;8.30;99.90;;;;;;5049376;28;20049;-62
2020/12/20 03:53:19;;;;;;;18.38;8.23;;;8.30;99.90;;;;;;5049185;28;20046;-62
2020/12/20 03:55:45;;;;;;;14.82;7.78;;;8.30;99.90;;;;;;5049268;28;20052;-63
2020/12/20 03:58:31;;;;;;;10.07;6.65;;;8.30;99.90;;;;;;5034749;28;20078;-62
2020/12/20 04:00:57;;;;;;;15.13;8.30;;;8.30;99.90;;;;;;5049256;28;20042;-62
2020/12/20 04:03:22;;;;;;;15.20;7.00;;;8.40;99.90;;;;;;5048996;28;20107;-62
2020/12/20 04:05:48;;;;;;;13.68;6.72;;;8.30;99.90;;;;;;5048899;28;20476;-62
2020/12/20 04:08:14;;;;;;;14.55;7.57;;;8.40;99.90;;;;;;5049016;28;20069;-62
2020/12/20 04:10:39;;;;;;;10.57;6.65;;;8.40;99.90;;;;;;5048935;28;20125;-62
2020/12/20 04:13:05;;;;;;;14.20;7.30;;;8.40;99.90;;;;;;5048984;28;20495;-62
2020/12/20 04:15:33;;;;;;;12.85;6.93;;;8.40;99.90;;;;;;5048776;28;20124;-62
2020/12/20 04:18:19;;;;;;;21.20;8.30;;;8.30;99.90;;;;;;5034123;28;20105;-62
2020/12/20 04:20:45;;;;;;;20.00;7.45;;;8.30;99.90;;;;;;5048703;28;20045;-62
2020/12/20 04:23:10;;;;;;;15.85;7.50;;;8.30;99.90;;;;;;5048650;28;20045;-62
2020/12/20 04:25:36;;;;;;;16.73;6.53;;;8.30;99.90;;;;;;5048715;28;20049;-62
2020/12/20 04:28:22;;;;;;;16.60;7.60;;;8.20;99.90;;;;;;5033721;28;20049;-62
2020/12/20 04:30:48;;;;;;;16.38;7.50;;;8.20;99.90;;;;;;5048386;28;20076;-62
2020/12/20 04:33:14;;;;;;;14.15;7.32;;;8.20;99.90;;;;;;5048489;28;20053;-62
2020/12/20 04:35:40;;;;;;;14.32;7.45;;;8.20;99.90;;;;;;5048584;28;20048;-62
2020/12/20 04:38:06;;;;;;;19.60;8.20;;;8.20;99.90;;;;;;5048292;28;20053;-62
2020/12/20 04:40:52;;;;;;;15.32;7.22;;;8.20;99.90;;;;;;5033734;28;20047;-62
2020/12/20 04:43:20;;;;;;;16.65;8.13;;;8.10;99.90;;;;;;5048357;28;20048;-62
2020/12/20 04:45:47;;;;;;;15.25;6.82;;;8.20;99.90;;;;;;5048311;28;20057;-62
2020/12/20 04:48:14;;;;;;;17.23;8.18;;;8.10;99.90;;;;;;5048589;28;20416;-62
2020/12/20 04:50:40;;;;;;;21.35;7.70;;;8.10;99.90;;;;;;5048188;28;20048;-62
2020/12/20 04:53:06;;;;;;;17.52;7.80;;;8.10;99.90;;;;;;5048051;28;20109;-62
2020/12/20 04:55:32;;;;;;;17.40;7.25;;;8.00;99.90;;;;;;5048078;28;20038;-62
2020/12/20 04:57:58;;;;;;;16.75;7.40;;;8.00;99.90;;;;;;5048025;28;20052;-62
2020/12/20 05:00:23;;;;;;;13.00;7.35;;;8.00;99.90;;;;;;5047879;28;20049;-63
2020/12/20 05:02:49;;;;;;;17.10;7.18;;;8.10;99.90;;;;;;5048212;28;20075;-62
2020/12/20 05:05:15;;;;;;;13.57;7.50;;;8.00;99.90;;;;;;5047964;28;20041;-62
2020/12/20 05:07:41;;;;;;;17.25;7.43;;;8.00;99.90;;;;;;5047913;28;20045;-62
2020/12/20 05:10:40;;;;;;;18.70;7.57;;;7.90;99.90;;;;;;5033091;28;20088;-62
2020/12/20 05:13:53;;;;;;;12.73;6.80;;;7.90;99.90;;;;;;5033067;28;20084;-62
2020/12/20 05:16:45;;;;;;;17.17;7.97;;;8.20;99.90;;;;;;5044800;28;20081;-62
2020/12/20 05:19:17;;;;;;;22.23;8.23;;;8.00;99.90;;;;;;5044757;28;20068;-62
2020/12/20 05:21:46;;;;;;;19.92;7.82;;;8.00;99.90;;;;;;5047796;28;20049;-62
2020/12/20 05:24:26;;;;;;;19.83;7.82;;;7.90;99.90;;;;;;5047760;28;20080;-62
2020/12/20 05:26:52;;;;;;;13.18;8.27;;;7.90;99.90;;;;;;5047707;28;20045;-62
2020/12/20 05:29:25;;;;;;;16.90;8.23;;;7.80;99.90;;;;;;5047408;28;20088;-62
2020/12/20 05:32:26;;;;;;;14.93;7.55;;;7.80;99.90;;;;;;5032650;28;20076;-62
2020/12/20 05:35:15;;;;;;;16.17;8.13;;;7.80;99.90;;;;;;5032627;28;20050;-62
2020/12/20 05:37:43;;;;;;;17.35;7.90;;;7.80;99.90;;;;;;5047181;28;20046;-62
2020/12/20 05:40:21;;;;;;;17.77;8.02;;;7.80;99.90;;;;;;5047139;28;20049;-62
2020/12/20 05:42:59;;;;;;;16.98;8.20;;;7.70;99.90;;;;;;5046873;28;20048;-62
2020/12/20 05:45:27;;;;;;;16.80;8.02;;;7.70;99.90;;;;;;5047142;28;20505;-62
2020/12/20 05:47:53;;;;;;;15.50;8.32;;;7.90;99.90;;;;;;5047120;28;20045;-62
2020/12/20 05:50:47;;;;;;;13.32;7.50;;;7.80;99.90;;;;;;5032388;28;20054;-62
2020/12/20 05:53:34;;;;;;;17.95;7.82;;;7.90;99.90;;;;;;5032290;28;20132;-62
2020/12/20 05:56:02;;;;;;;17.43;8.53;;;7.80;99.90;;;;;;5047355;28;20046;-62
2020/12/20 05:58:48;;;;;;;13.07;8.35;;;7.80;99.90;;;;;;5032075;28;20315;-62
2020/12/20 06:01:20;;;;;;;19.00;7.90;;;7.80;99.90;;;;;;5046987;28;20053;-62
2020/12/20 06:03:46;;;;;;;14.13;7.72;;;7.70;99.90;;;;;;5046805;28;20046;-62
2020/12/20 06:06:17;;;;;;;17.63;8.45;;;7.70;99.90;;;;;;5046715;28;20049;-62
2020/12/20 06:09:08;;;;;;;20.25;7.70;;;7.70;99.90;;;;;;5031806;28;20576;-62
2020/12/20 06:11:35;;;;;;;17.90;8.70;;;7.70;99.90;;;;;;5046621;28;20100;-62
2020/12/20 06:14:28;;;;;;;17.95;8.07;;;7.70;99.90;;;;;;5031995;28;20055;-62
2020/12/20 06:17:10;;;;;;;19.30;8.85;;;7.60;99.90;;;;;;5046689;28;20042;-62
2020/12/20 06:19:57;;;;;;;16.50;7.70;;;7.60;99.90;;;;;;5031929;28;20056;-62
2020/12/20 06:22:32;;;;;;;23.10;8.50;;;7.60;99.90;;;;;;5046587;28;20057;-62
2020/12/20 06:25:03;;;;;;;14.82;8.20;;;7.60;99.90;;;;;;5046435;28;20109;-62
2020/12/20 06:27:31;;;;;;;21.15;8.57;;;7.60;99.90;;;;;;5046402;28;20041;-62
2020/12/20 06:30:20;;;;;;;16.35;8.20;;;7.50;99.90;;;;;;5031599;28;20103;-62
2020/12/20 06:32:59;;;;;;;15.52;8.65;;;7.60;99.90;;;;;;5046267;28;20068;-62
2020/12/20 06:35:24;;;;;;;;;;;7.60;99.90;;;;;;5046722;28;20042;-62
2020/12/20 06:37:52;;;;;;;19.45;8.25;;;7.60;99.90;;;;;;5046018;28;19927;-62
2020/12/20 06:40:42;;;;;;;19.85;9.05;;;7.60;99.90;;;;;;5046610;28;20064;-62
2020/12/20 06:43:09;;;;;;;22.42;8.75;;;7.50;99.90;;;;;;5038839;28;20041;-62
2020/12/20 06:45:45;;;;;;;22.60;9.18;;;7.60;99.90;;;;;;5046192;28;20041;-62
2020/12/20 06:48:13;;;;;;;16.10;8.07;;;7.60;99.90;;;;;;5046145;28;20103;-62
2020/12/20 06:50:39;;;;;;;20.65;8.25;;;7.50;99.90;;;;;;5046116;28;20041;-62
2020/12/20 06:53:05;;;;;;;21.42;9.13;;;7.50;99.90;;;;;;5045848;28;20072;-62
2020/12/20 06:55:31;;;;;;;19.13;7.55;;;7.50;99.90;;;;;;5046234;28;20068;-62
2020/12/20 06:58:18;;;;;;;20.05;8.50;;;7.50;99.90;;;;;;5031225;28;20099;-62
2020/12/20 07:00:52;;;;;;;15.03;8.23;;;7.60;99.90;;;;;;5046174;28;20141;-62
2020/12/20 07:03:23;;;;;;;17.60;8.52;;;7.60;99.90;;;;;;5045782;28;20057;-62
2020/12/20 07:06:10;;;;;;;18.52;8.10;;;7.60;99.90;;;;;;5031050;28;20042;-62
2020/12/20 07:08:37;;;;;;;20.90;9.07;;;7.60;99.90;;;;;;5045854;28;20042;-62
2020/12/20 07:11:24;;;;;;;19.30;9.40;;;7.60;99.90;;;;;;5045864;28;20046;-62
2020/12/20 07:13:51;;;;;;;14.63;7.97;;;7.60;99.90;;;;;;5045789;28;20069;-62
2020/12/20 07:16:39;;;;;;;15.27;8.65;;;7.60;99.90;;;;;;5031179;28;20054;-62
2020/12/20 07:19:10;;;;;;;12.57;8.52;;;7.60;99.90;;;;;;5045920;28;20076;-62
2020/12/20 07:21:45;;;;;;;16.27;8.65;;;7.60;99.90;;;;;;5045791;28;20042;-62
2020/12/20 07:24:29;;;;;;;19.70;8.75;;;7.50;99.90;;;;;;5045998;28;20041;-62
2020/12/20 07:26:59;;;;;;;17.27;8.68;;;7.60;99.90;;;;;;5045613;28;20105;-62
2020/12/20 07:29:44;;;;;;;23.98;9.07;;;7.60;99.90;;;;;;5030626;28;20049;-62
2020/12/20 07:32:10;;;;;;;22.02;9.43;;;7.60;99.90;;;;;;5045583;28;20091;-62
2020/12/20 07:34:36;;;;;;;19.05;9.25;;;7.60;99.90;;;;;;5045643;28;20052;-62
2020/12/20 07:37:02;;;;;;;23.00;10.75;;;7.60;99.90;;;;;;5045296;28;20048;-62
2020/12/20 07:40:00;;;;;;;25.85;9.35;;;7.60;99.90;;;;;;5030723;28;20489;-62
2020/12/20 07:42:45;;;;;;;19.75;9.25;;;7.70;99.90;;;;;;5030725;28;20497;-62
2020/12/20 07:45:12;;;;;;;15.88;8.15;;;7.70;99.90;;;;;;5045543;28;20045;-62
2020/12/20 07:47:58;;;;;;;22.75;8.88;;;7.70;99.90;;;;;;5031110;28;20103;-62
2020/12/20 07:50:24;;;;;;;15.48;8.50;;;7.70;99.90;;;;;;5045228;28;20088;-62
2020/12/20 07:52:50;;;;;;;14.60;9.50;;;7.70;99.90;;;;;;5045106;28;20057;-62
2020/12/20 07:55:17;;;;;;;17.13;9.23;;;7.60;99.90;;;;;;5044878;28;20046;-62
2020/12/20 07:58:03;;;;;;;19.60;9.90;;;7.60;99.90;;;;;;5029725;28;20058;-62
2020/12/20 08:00:28;;;;;;;15.38;8.73;;;7.60;99.90;;;;;;5044803;28;20049;-62
2020/12/20 08:03:05;;;;;;;14.40;8.30;;;7.60;99.90;;;;;;5044784;28;20069;-62
2020/12/20 08:05:31;;;;;;;17.80;9.48;;;7.60;99.90;;;;;;5047832;28;20447;-62
2020/12/20 08:07:57;;;;;;;21.45;8.88;;;7.60;99.90;;;;;;5048342;28;20049;-62
2020/12/20 08:10:43;;;;;;;20.00;9.25;;;7.60;99.90;;;;;;5033427;28;20053;-62
2020/12/20 08:13:30;;;;;;;21.02;9.70;;;7.60;99.90;;;;;;5033435;28;20141;-62
2020/12/20 08:15:56;;;;;;;19.33;9.17;;;7.60;99.90;;;;;;5048298;28;20053;-62
2020/12/20 08:18:22;;;;;;;19.42;8.68;;;7.70;99.90;;;;;;5048089;28;20045;-62
2020/12/20 08:21:09;;;;;;;20.90;9.23;;;7.60;99.90;;;;;;5033263;28;20120;-64
2020/12/20 08:23:58;;;;;;;16.35;7.60;;;7.60;99.90;;;;;;5033523;28;20053;-62
2020/12/20 08:26:34;;;;;;;16.65;8.43;;;7.70;99.90;;;;;;5048176;28;20052;-62
2020/12/20 08:29:01;;;;;;;20.90;9.10;;;7.70;99.90;;;;;;5048008;28;20060;-62
2020/12/20 08:31:28;;;;;;;14.13;8.15;;;7.70;99.90;;;;;;5047702;28;20045;-62
2020/12/20 08:33:54;;;;;;;19.65;8.80;;;7.80;99.90;;;;;;5047715;28;20049;-62
2020/12/20 08:36:45;;;;;;;23.38;8.60;;;7.80;99.90;;;;;;5032556;28;20068;-62
2020/12/20 08:39:31;;;;;;;15.55;7.88;;;7.80;99.90;;;;;;5032978;28;20049;-62
2020/12/20 08:42:09;;;;;;;19.60;8.70;;;7.80;99.90;;;;;;5047645;28;20053;-62
2020/12/20 08:44:35;;;;;;;14.32;7.35;;;7.90;99.90;;;;;;5047914;28;20041;-63
2020/12/20 08:47:10;;;;;;;16.50;8.10;;;7.90;99.90;;;;;;5047788;28;20053;-63
2020/12/20 08:49:36;;;;;;;17.45;7.28;;;7.90;99.90;;;;;;5047732;28;20408;-62
2020/12/20 08:52:13;;;;;;;15.05;7.25;;;8.00;99.90;;;;;;5047502;28;20050;-62
2020/12/20 08:54:40;;;;;;;18.48;7.25;;;8.00;99.90;;;;;;5047399;28;20097;-62
2020/12/20 08:57:12;;;;;;;15.13;7.45;;;8.00;99.90;;;;;;5047309;28;20046;-63
2020/12/20 08:59:40;;;;;;;29.30;7.10;;;8.00;99.90;;;;;;5047385;28;20045;-63
2020/12/20 09:02:09;;;;;;;16.92;7.00;;;8.10;99.90;;;;;;5047483;28;20052;-63
2020/12/20 09:05:06;;;;;;;16.40;6.43;;;8.10;99.90;;;;;;5032686;28;20133;-63
2020/12/20 09:07:53;;;;;;;15.25;7.80;;;8.20;99.90;;;;;;5030406;28;20045;-62
2020/12/20 09:10:28;;;;;;;16.02;7.30;;;8.20;99.90;;;;;;5045817;28;20045;-63
2020/12/20 09:12:58;;;;;;;15.75;7.00;;;8.20;99.90;;;;;;5045676;28;20053;-63
2020/12/20 09:15:34;;;;;;;20.45;6.78;;;8.20;99.90;;;;;;5045042;28;20063;-63
2020/12/20 09:18:21;;;;;;;15.07;6.47;;;8.20;99.90;;;;;;5045721;28;20056;-65
2020/12/20 09:20:48;;;;;;;16.02;6.63;;;8.20;99.90;;;;;;5047157;28;20042;-62
2020/12/20 09:23:21;;;;;;;11.55;6.57;;;8.20;99.90;;;;;;5046969;28;20075;-62
2020/12/20 09:26:07;;;;;;;18.23;6.90;;;8.20;99.90;;;;;;5012398;28;20049;-63
2020/12/20 09:28:33;;;;;;;15.65;6.28;;;8.30;99.90;;;;;;5027302;28;20054;-64
2020/12/20 09:31:11;;;;;;;21.30;6.13;;;8.30;99.90;;;;;;5029994;28;20080;-63
2020/12/20 09:33:37;;;;;;;22.02;7.20;;;8.30;99.90;;;;;;5044882;28;20140;-62
2020/12/20 09:36:04;;;;;;;20.08;5.90;;;8.30;99.90;;;;;;5046751;28;20107;-64
2020/12/20 09:38:51;;;;;;;19.15;7.18;;;8.30;99.90;;;;;;5045924;28;20046;-63
2020/12/20 09:41:19;;;;;;;18.27;6.82;;;8.30;99.90;;;;;;5044744;28;20037;-63
2020/12/20 09:43:47;;;;;;;17.27;6.40;;;8.30;99.90;;;;;;5046563;28;20052;-63
2020/12/20 09:46:31;;;;;;;14.55;6.13;;;8.30;99.90;;;;;;5045988;28;20041;-63
2020/12/20 09:49:16;;;;;;;15.20;6.22;;;8.30;99.90;;;;;;5050705;28;20105;-75
2020/12/20 09:51:42;;;;;;;16.42;7.43;;;8.30;99.90;;;;;;5030768;28;20045;-66
2020/12/20 09:54:08;;;;;;;26.35;6.72;;;8.30;99.90;;;;;;5035833;28;20107;-66
2020/12/20 09:56:34;;;;;;;22.60;7.05;;;8.40;99.90;;;;;;5040877;28;20508;-66
2020/12/20 09:58:59;;;;;;;16.10;6.95;;;8.40;99.90;;;;;;5049295;28;20044;-69
2020/12/20 10:01:28;;;;;;;15.18;6.75;;;8.50;99.90;;;;;;5043396;28;20045;-64
2020/12/20 10:03:54;;;;;;;14.88;6.85;;;8.50;99.90;;;;;;5037963;28;20045;-64
2020/12/20 10:06:19;;;;;;;12.50;6.13;;;8.60;99.90;;;;;;5066389;28;20060;-73
2020/12/20 10:08:46;;;;;;;18.38;6.95;;;8.60;99.90;;;;;;5028534;28;20049;-74
2020/12/20 10:11:16;;;;;;;15.80;7.13;;;8.60;99.90;;;;;;5026448;28;20125;-65
2020/12/20 10:13:42;;;;;;;16.83;7.90;;;8.60;99.90;;;;;;5045460;28;20569;-65
2020/12/20 10:16:28;;;;;;;14.43;6.93;;;8.60;99.90;;;;;;5031261;28;20052;-65
2020/12/20 10:18:54;;;;;;;20.17;7.45;;;8.70;99.90;;;;;;5046136;28;20056;-65
2020/12/20 10:21:20;;;;;;;14.05;6.38;;;8.70;99.90;;;;;;5046252;28;20045;-65
2020/12/20 10:23:45;;;;;;;21.80;7.53;;;8.70;99.90;;;;;;5046290;28;20134;-65
2020/12/20 10:26:31;;;;;;;14.02;7.47;;;8.70;99.90;;;;;;5058491;28;20456;-65
2020/12/20 10:28:57;;;;;;;17.73;7.22;;;8.80;99.90;;;;;;5045737;28;20061;-65
2020/12/20 10:31:22;;;;;;;20.65;9.15;;;8.80;99.90;;;;;;5045707;28;20045;-65
2020/12/20 10:33:48;;;;;;;13.93;6.38;;;8.80;99.90;;;;;;5046064;28;20093;-65
2020/12/20 10:36:35;;;;;;;22.55;7.70;;;8.90;99.90;;;;;;5058754;28;20057;-65
2020/12/20 10:39:21;;;;;;;15.00;7.57;;;8.90;99.90;;;;;;5030744;28;20424;-65
2020/12/20 10:41:52;;;;;;;21.98;8.85;;;8.90;99.90;;;;;;5045799;28;20045;-65
2020/12/20 10:44:21;;;;;;;14.43;6.70;;;9.00;99.90;;;;;;5045650;28;20477;-65
2020/12/20 10:47:07;;;;;;;15.65;7.97;;;9.00;99.90;;;;;;5058472;28;20064;-65
2020/12/20 10:49:34;;;;;;;19.52;7.72;;;9.00;99.90;;;;;;5045631;28;20041;-65
2020/12/20 10:52:19;;;;;;;23.52;8.93;;;9.00;99.90;;;;;;5030684;28;20045;-65
2020/12/20 10:54:45;;;;;;;21.23;8.65;;;9.10;99.90;;;;;;5045570;28;20421;-65
2020/12/20 10:57:11;;;;;;;21.42;8.15;;;9.10;99.90;;;;;;5045435;28;20052;-65
2020/12/20 10:59:37;;;;;;;21.25;8.10;;;9.20;99.90;;;;;;5045397;28;20045;-65
2020/12/20 11:02:22;;;;;;;28.83;9.02;;;9.10;99.90;;;;;;5030739;28;20055;-65
2020/12/20 11:04:48;;;;;;;20.55;8.20;;;9.10;99.90;;;;;;5045400;28;20065;-64
2020/12/20 11:07:34;;;;;;;17.90;7.20;;;9.10;99.90;;;;;;5058079;28;20060;-65
2020/12/20 11:10:20;;;;;;;20.60;7.85;;;9.20;99.90;;;;;;5030638;28;20053;-65
2020/12/20 11:13:05;;;;;;;22.25;10.05;;;9.20;99.90;;;;;;5030396;28;20045;-65
2020/12/20 11:15:51;;;;;;;21.58;8.40;;;9.20;99.90;;;;;;5058004;28;20485;-65
2020/12/20 11:18:17;;;;;;;29.73;11.75;;;9.20;99.90;;;;;;5039454;28;20053;-80
2020/12/20 11:20:42;;;;;;;21.40;9.48;;;9.30;99.90;;;;;;5029218;28;20041;-67
2020/12/20 11:23:08;;;;;;;27.38;9.88;;;9.20;99.90;;;;;;5028882;28;20049;-69
2020/12/20 11:25:34;;;;;;;21.38;8.35;;;9.30;99.90;;;;;;5035003;28;20041;-68
2020/12/20 11:28:00;;;;;;;19.52;9.52;;;9.30;99.90;;;;;;5048054;28;20065;-73
2020/12/20 11:30:26;;;;;;;22.02;8.77;;;9.30;99.90;;;;;;5044341;28;20057;-74
2020/12/20 11:32:52;;;;;;;23.50;8.30;;;9.30;99.90;;;;;;5024155;28;20099;-75
2020/12/20 11:35:17;;;;;;;20.52;8.38;;;9.30;99.90;;;;;;5035707;28;20120;-73
2020/12/20 11:38:03;;;;;;;19.85;8.43;;;9.30;99.90;;;;;;5049920;28;20458;-69
2020/12/20 11:40:29;;;;;;;17.48;7.90;;;9.40;99.90;;;;;;5043444;28;20065;-75
2020/12/20 11:42:55;;;;;;;23.98;8.32;;;9.40;99.90;;;;;;5052365;28;20087;-75
2020/12/20 11:45:21;;;;;;;25.25;9.07;;;9.40;99.90;;;;;;5059963;28;20046;-75
2020/12/20 11:48:06;;;;;;;19.95;9.43;;;9.40;99.90;;;;;;5021680;28;20053;-74
2020/12/20 11:50:32;;;;;;;23.38;9.15;;;9.40;99.90;;;;;;5031819;28;20121;-70
2020/12/20 11:52:58;;;;;;;25.05;9.90;;;9.40;99.90;;;;;;5045789;28;20064;-71
2020/12/20 11:55:44;;;;;;;22.95;9.55;;;9.50;99.90;;;;;;5033031;28;20053;-71
2020/12/20 11:58:13;;;;;;;26.45;10.00;;;9.50;99.90;;;;;;5050333;28;20047;-67
2020/12/20 12:00:46;;;;;;;26.98;10.10;;;9.60;99.90;;;;;;5052631;28;20042;-69
2020/12/20 12:03:13;;;;;;;33.38;11.30;;;9.70;99.90;;;;;;5028385;28;20121;-68
2020/12/20 12:06:00;;;;;;;18.33;8.52;;;9.80;99.90;;;;;;5017662;28;20042;-63
2020/12/20 12:08:26;;;;;;;16.25;6.50;;;10.20;99.90;;;;;;5028908;28;20049;-67
2020/12/20 12:10:53;;;;;;;18.45;8.40;;;10.30;99.90;;;;;;5046425;28;20037;-65
2020/12/20 12:13:19;;;;;;;23.70;9.68;;;10.50;99.90;;;;;;5052425;28;20032;-63
2020/12/20 12:15:45;;;;;;;20.42;8.25;;;10.60;99.90;;;;;;5030844;28;20072;-67
2020/12/20 12:18:12;;;;;;;27.58;8.38;;;10.80;99.90;;;;;;5049169;28;20075;-67
2020/12/20 12:20:38;;;;;;;21.88;8.23;;;10.80;99.10;;;;;;5029910;28;20045;-68
2020/12/20 12:23:05;;;;;;;20.00;7.75;;;10.70;98.90;;;;;;5033567;28;20132;-67
2020/12/20 12:25:31;;;;;;;17.52;6.82;;;10.80;99.20;;;;;;5034691;28;20041;-68
2020/12/20 12:27:57;;;;;;;23.02;8.52;;;10.90;99.00;;;;;;5043657;28;20048;-68
2020/12/20 12:30:24;;;;;;;15.15;6.93;;;10.90;98.40;;;;;;5047063;28;20057;-68
2020/12/20 12:32:52;;;;;;;22.45;8.25;;;10.80;97.80;;;;;;5047146;28;20077;-68
2020/12/20 12:35:19;;;;;;;19.83;7.53;;;10.60;97.80;;;;;;5047524;28;20068;-65
2020/12/20 12:38:05;;;;;;;21.00;7.25;;;10.60;98.10;;;;;;5027637;28;20057;-66
2020/12/20 12:40:51;;;;;;;25.88;8.07;;;10.50;98.70;;;;;;5031505;28;20049;-64
2020/12/20 12:43:16;;;;;;;22.83;7.55;;;10.40;98.90;;;;;;5046323;28;20048;-65
2020/12/20 12:45:43;;;;;;;27.13;8.27;;;10.20;98.10;;;;;;5047198;28;20037;-65
2020/12/20 12:48:28;;;;;;;22.33;9.27;;;10.20;99.00;;;;;;5058310;28;20053;-64
2020/12/20 12:51:25;;;;;;;23.65;8.00;;;10.00;99.10;;;;;;5059255;28;20121;-63
2020/12/20 12:53:52;;;;;;;26.70;9.05;;;9.90;99.30;;;;;;5047042;28;20413;-69
2020/12/20 12:56:38;;;;;;;28.17;8.88;;;9.90;99.50;;;;;;5028471;28;20046;-65
2020/12/20 12:59:28;;;;;;;21.60;8.77;;;9.80;99.70;;;;;;5031058;28;20051;-70
2020/12/20 13:01:54;;;;;;;27.52;9.13;;;9.80;99.40;;;;;;5046537;28;20049;-65
2020/12/20 13:04:20;;;;;;;26.83;8.48;;;9.80;99.60;;;;;;5046171;28;20489;-65
2020/12/20 13:06:46;;;;;;;22.08;8.93;;;9.80;99.60;;;;;;5046735;28;20041;-67
2020/12/20 13:09:32;;;;;;;23.55;8.70;;;9.80;99.70;;;;;;5030102;28;20068;-66
2020/12/20 13:12:02;;;;;;;24.80;9.52;;;9.80;99.60;;;;;;5046718;28;20041;-75
2020/12/20 13:14:28;;;;;;;25.27;9.45;;;9.80;99.90;;;;;;5046498;28;20111;-71